Pagrindinis puslapis
METAR-TAF:

METAR-TAF

Oro uostai :

Cervia, Italija

platuma: 44-13N, ilguma: 012-18E, Aukštis: 6 m

Dabartinis oras

Ataskaita buvo paskelbta 1 valandą ir 11 minutes, ne 02:55 UTC
Vėjas 4 kt iš Rytų
Temperatūra 6°C
Drėgmė 87%
Slėgis 1021 hPa
Matomumas 10 km arba daugiau
Išsisklaidę debesys ne aukštis 6000 ft

METAR: LIPC 180255Z 08004KT 9999 SCT060 06/04 Q1021 RMK BKN SCT080 VIS MIN 9999 WIND THR11 /////KT WIND THR29 09005KT BLU

Laikas: 05:06 (04:06 UTC)

Prognozė

Ataskaita buvo paskelbta 2 valandos ir 6 minutes, ne 02:00 UTC
Prognozė galioja nuo 18 metu 03 UTC su 18 metu 12 UTC
Vėjas 5 kt iš Pietryčių
Matomumas: 7000 m
Mažai debesys ne aukštis 3000 ft
Išsisklaidę debesys ne aukštis 6000 ft
Tapsmas
nuo 18 metu 04 UTC su 18 metu 06 UTC
Matomumas: 4000 m
Išsisklaidę debesys ne aukštis 2000 ft
Su prošvaistėmis ne aukštis 4000 ft
lietus, rūkana

TAF: LIPC 180200Z 1803/1812 14005KT 7000 FEW030 SCT060 BECMG 1804/1806 4000 RA BR SCT020 BKN040

Orai ataskaitas ir orų prognozės (METAR, TAF).

turimą stotys yra geltonos ir raudonos taškus žemėlapyje.

Perkelti pele per norėdami pamatyti stoties vardą.

Tada spustelėkite, norėdami matyti oro stebėjimo ir prognozės.

Norėdami pakeisti žemėlapį: spustelėkite ant žalios mygtukų su juodo kryžiaus žemyn,; žalią mygtuką su brūkšneliu, jei norite nutolinti; arba žalių rodyklių gretimoms žemėlapius.


METAR-TAF: